sensor_id;sensor_type;location;lat;lon;timestamp;temperature;humidity
12833;DHT22;6483;51.310;4.462;2024-03-23T00:54:16;7.40;99.90
12833;DHT22;6483;51.310;4.462;2024-03-23T00:56:42;7.30;99.90
12833;DHT22;6483;51.310;4.462;2024-03-23T00:59:07;7.20;99.90
12833;DHT22;6483;51.310;4.462;2024-03-23T01:01:33;7.30;99.90
12833;DHT22;6483;51.310;4.462;2024-03-23T01:04:05;7.30;99.90
12833;DHT22;6483;51.310;4.462;2024-03-23T01:06:30;7.30;99.90
12833;DHT22;6483;51.310;4.462;2024-03-23T01:08:59;7.40;99.90
12833;DHT22;6483;51.310;4.462;2024-03-23T01:11:24;7.30;99.90
12833;DHT22;6483;51.310;4.462;2024-03-23T01:13:50;7.20;99.90
12833;DHT22;6483;51.310;4.462;2024-03-23T01:16:16;7.10;99.90
12833;DHT22;6483;51.310;4.462;2024-03-23T01:18:44;7.00;99.90
12833;DHT22;6483;51.310;4.462;2024-03-23T01:21:14;7.10;99.90
12833;DHT22;6483;51.310;4.462;2024-03-23T01:23:43;7.10;99.90
12833;DHT22;6483;51.310;4.462;2024-03-23T01:26:17;7.20;99.90
12833;DHT22;6483;51.310;4.462;2024-03-23T01:28:46;7.10;99.90
12833;DHT22;6483;51.310;4.462;2024-03-23T01:31:13;6.90;99.90
12833;DHT22;6483;51.310;4.462;2024-03-23T01:33:39;6.90;99.90
12833;DHT22;6483;51.310;4.462;2024-03-23T01:36:08;6.90;99.90
12833;DHT22;6483;51.310;4.462;2024-03-23T01:38:38;6.80;99.90
12833;DHT22;6483;51.310;4.462;2024-03-23T01:41:04;6.80;99.90
12833;DHT22;6483;51.310;4.462;2024-03-23T01:43:30;6.80;99.90
12833;DHT22;6483;51.310;4.462;2024-03-23T01:45:59;6.70;99.90
12833;DHT22;6483;51.310;4.462;2024-03-23T01:48:25;6.70;99.90
12833;DHT22;6483;51.310;4.462;2024-03-23T01:50:50;6.40;99.90
12833;DHT22;6483;51.310;4.462;2024-03-23T01:53:16;6.30;99.90
12833;DHT22;6483;51.310;4.462;2024-03-23T01:55:47;6.20;99.90
12833;DHT22;6483;51.310;4.462;2024-03-23T01:58:16;6.00;99.90
12833;DHT22;6483;51.310;4.462;2024-03-23T02:00:42;5.90;99.90
12833;DHT22;6483;51.310;4.462;2024-03-23T02:03:27;5.80;99.90
12833;DHT22;6483;51.310;4.462;2024-03-23T02:05:57;5.80;99.90
12833;DHT22;6483;51.310;4.462;2024-03-23T02:08:27;5.80;99.90
12833;DHT22;6483;51.310;4.462;2024-03-23T02:10:58;6.00;99.90
12833;DHT22;6483;51.310;4.462;2024-03-23T02:13:24;6.00;99.90
12833;DHT22;6483;51.310;4.462;2024-03-23T02:15:50;5.90;99.90
12833;DHT22;6483;51.310;4.462;2024-03-23T02:18:18;5.80;99.90
12833;DHT22;6483;51.310;4.462;2024-03-23T02:23:15;5.60;99.90
12833;DHT22;6483;51.310;4.462;2024-03-23T02:25:41;5.60;99.90
12833;DHT22;6483;51.310;4.462;2024-03-23T02:28:09;5.40;99.90
12833;DHT22;6483;51.310;4.462;2024-03-23T02:30:35;5.20;99.90
12833;DHT22;6483;51.310;4.462;2024-03-23T02:33:04;5.10;99.90
12833;DHT22;6483;51.310;4.462;2024-03-23T02:35:30;5.20;99.90
12833;DHT22;6483;51.310;4.462;2024-03-23T02:37:55;5.20;99.90
12833;DHT22;6483;51.310;4.462;2024-03-23T02:40:23;5.20;99.90
12833;DHT22;6483;51.310;4.462;2024-03-23T02:42:49;5.20;99.90
12833;DHT22;6483;51.310;4.462;2024-03-23T02:50:12;4.90;99.90
12833;DHT22;6483;51.310;4.462;2024-03-23T02:52:40;4.80;99.90
12833;DHT22;6483;51.310;4.462;2024-03-23T02:55:14;4.60;99.90
12833;DHT22;6483;51.310;4.462;2024-03-23T02:57:43;4.60;99.90
12833;DHT22;6483;51.310;4.462;2024-03-23T03:00:11;4.60;99.90
12833;DHT22;6483;51.310;4.462;2024-03-23T03:05:07;4.40;99.90
12833;DHT22;6483;51.310;4.462;2024-03-23T03:10:00;4.30;99.90
12833;DHT22;6483;51.310;4.462;2024-03-23T03:12:27;4.20;99.90
12833;DHT22;6483;51.310;4.462;2024-03-23T03:14:53;4.20;99.90
12833;DHT22;6483;51.310;4.462;2024-03-23T03:17:18;4.00;99.90
12833;DHT22;6483;51.310;4.462;2024-03-23T03:19:44;4.00;99.90
12833;DHT22;6483;51.310;4.462;2024-03-23T03:24:37;3.90;99.90
12833;DHT22;6483;51.310;4.462;2024-03-23T03:27:02;3.80;99.90
12833;DHT22;6483;51.310;4.462;2024-03-23T03:29:29;3.80;99.90
12833;DHT22;6483;51.310;4.462;2024-03-23T03:32:01;3.80;99.90
12833;DHT22;6483;51.310;4.462;2024-03-23T03:34:27;3.80;99.90
12833;DHT22;6483;51.310;4.462;2024-03-23T03:36:54;3.70;99.90
12833;DHT22;6483;51.310;4.462;2024-03-23T03:39:20;3.60;99.90
12833;DHT22;6483;51.310;4.462;2024-03-23T03:41:45;3.70;99.90
12833;DHT22;6483;51.310;4.462;2024-03-23T03:44:11;3.90;99.90
12833;DHT22;6483;51.310;4.462;2024-03-23T03:46:37;3.80;99.90
12833;DHT22;6483;51.310;4.462;2024-03-23T03:49:02;3.70;99.90
12833;DHT22;6483;51.310;4.462;2024-03-23T03:51:28;3.60;99.90
12833;DHT22;6483;51.310;4.462;2024-03-23T03:53:54;3.50;99.90
12833;DHT22;6483;51.310;4.462;2024-03-23T03:56:19;3.70;99.90
12833;DHT22;6483;51.310;4.462;2024-03-23T03:58:45;3.80;99.90
12833;DHT22;6483;51.310;4.462;2024-03-23T04:01:11;3.60;99.90
12833;DHT22;6483;51.310;4.462;2024-03-23T04:03:36;3.50;99.90
12833;DHT22;6483;51.310;4.462;2024-03-23T04:06:02;3.60;99.90
12833;DHT22;6483;51.310;4.462;2024-03-23T04:08:28;6.70;99.90
12833;DHT22;6483;51.310;4.462;2024-03-23T04:10:54;3.60;99.90
12833;DHT22;6483;51.310;4.462;2024-03-23T04:13:20;3.60;99.90
12833;DHT22;6483;51.310;4.462;2024-03-23T04:15:46;3.70;99.90
12833;DHT22;6483;51.310;4.462;2024-03-23T04:18:11;3.60;99.90
12833;DHT22;6483;51.310;4.462;2024-03-23T04:20:37;3.60;99.90
12833;DHT22;6483;51.310;4.462;2024-03-23T04:23:03;3.70;99.90
12833;DHT22;6483;51.310;4.462;2024-03-23T04:27:54;4.10;99.90
12833;DHT22;6483;51.310;4.462;2024-03-23T04:30:20;4.30;99.90
12833;DHT22;6483;51.310;4.462;2024-03-23T04:35:13;4.70;99.90
12833;DHT22;6483;51.310;4.462;2024-03-23T04:37:39;4.90;99.90
12833;DHT22;6483;51.310;4.462;2024-03-23T04:42:33;5.10;99.90
12833;DHT22;6483;51.310;4.462;2024-03-23T04:45:00;5.20;99.90
12833;DHT22;6483;51.310;4.462;2024-03-23T04:47:25;5.30;99.90
12833;DHT22;6483;51.310;4.462;2024-03-23T04:49:51;5.40;99.90
12833;DHT22;6483;51.310;4.462;2024-03-23T04:52:17;5.30;99.90
12833;DHT22;6483;51.310;4.462;2024-03-23T04:54:43;5.20;99.90
12833;DHT22;6483;51.310;4.462;2024-03-23T04:57:09;5.20;99.90
12833;DHT22;6483;51.310;4.462;2024-03-23T04:59:35;5.20;99.90
12833;DHT22;6483;51.310;4.462;2024-03-23T05:02:00;5.10;99.90
12833;DHT22;6483;51.310;4.462;2024-03-23T05:06:53;5.00;99.90
12833;DHT22;6483;51.310;4.462;2024-03-23T05:09:19;5.00;99.90
12833;DHT22;6483;51.310;4.462;2024-03-23T05:11:45;5.10;99.90
12833;DHT22;6483;51.310;4.462;2024-03-23T05:14:13;5.00;99.90
12833;DHT22;6483;51.310;4.462;2024-03-23T05:16:39;5.00;99.90
12833;DHT22;6483;51.310;4.462;2024-03-23T05:19:05;5.10;99.90
12833;DHT22;6483;51.310;4.462;2024-03-23T05:26:23;5.20;99.90
12833;DHT22;6483;51.310;4.462;2024-03-23T05:28:49;5.30;99.90
12833;DHT22;6483;51.310;4.462;2024-03-23T05:31:28;5.40;99.90
12833;DHT22;6483;51.310;4.462;2024-03-23T05:33:54;5.50;99.90
12833;DHT22;6483;51.310;4.462;2024-03-23T05:36:20;5.50;99.90
12833;DHT22;6483;51.310;4.462;2024-03-23T05:38:46;5.60;99.90
12833;DHT22;6483;51.310;4.462;2024-03-23T05:41:12;5.70;99.90
12833;DHT22;6483;51.310;4.462;2024-03-23T05:46:10;5.90;99.90
12833;DHT22;6483;51.310;4.462;2024-03-23T05:48:37;6.10;99.90
12833;DHT22;6483;51.310;4.462;2024-03-23T05:53:32;6.20;99.90
12833;DHT22;6483;51.310;4.462;2024-03-23T05:56:04;6.20;99.90
12833;DHT22;6483;51.310;4.462;2024-03-23T06:01:20;6.30;99.90
12833;DHT22;6483;51.310;4.462;2024-03-23T06:04:09;6.20;99.90
12833;DHT22;6483;51.310;4.462;2024-03-23T06:06:37;6.20;99.90
12833;DHT22;6483;51.310;4.462;2024-03-23T06:09:03;6.20;99.90
12833;DHT22;6483;51.310;4.462;2024-03-23T06:11:32;6.20;99.90
12833;DHT22;6483;51.310;4.462;2024-03-23T06:13:58;6.30;99.90
12833;DHT22;6483;51.310;4.462;2024-03-23T06:16:23;6.30;99.90
12833;DHT22;6483;51.310;4.462;2024-03-23T06:21:16;6.40;99.90
12833;DHT22;6483;51.310;4.462;2024-03-23T06:26:09;6.40;99.90
12833;DHT22;6483;51.310;4.462;2024-03-23T06:28:37;6.50;99.90
12833;DHT22;6483;51.310;4.462;2024-03-23T06:31:03;6.50;99.90
12833;DHT22;6483;51.310;4.462;2024-03-23T06:33:34;6.40;99.90
12833;DHT22;6483;51.310;4.462;2024-03-23T06:36:00;6.40;99.90
12833;DHT22;6483;51.310;4.462;2024-03-23T06:38:28;6.40;99.90
12833;DHT22;6483;51.310;4.462;2024-03-23T06:40:58;6.40;99.90
12833;DHT22;6483;51.310;4.462;2024-03-23T06:43:28;6.30;99.90
12833;DHT22;6483;51.310;4.462;2024-03-23T06:45:54;6.40;99.90
12833;DHT22;6483;51.310;4.462;2024-03-23T06:48:20;6.40;99.90
12833;DHT22;6483;51.310;4.462;2024-03-23T06:50:58;6.50;99.90
12833;DHT22;6483;51.310;4.462;2024-03-23T06:53:23;6.60;99.90
12833;DHT22;6483;51.310;4.462;2024-03-23T06:56:07;6.80;99.90
12833;DHT22;6483;51.310;4.462;2024-03-23T07:03:28;7.20;99.90
12833;DHT22;6483;51.310;4.462;2024-03-23T07:05:58;7.00;99.90
12833;DHT22;6483;51.310;4.462;2024-03-23T07:10:51;6.60;99.90
12833;DHT22;6483;51.310;4.462;2024-03-23T07:13:17;6.50;99.90
12833;DHT22;6483;51.310;4.462;2024-03-23T07:15:43;6.50;99.90
12833;DHT22;6483;51.310;4.462;2024-03-23T07:18:08;6.50;99.90
12833;DHT22;6483;51.310;4.462;2024-03-23T07:20:34;6.60;99.90
12833;DHT22;6483;51.310;4.462;2024-03-23T07:27:54;6.90;99.90
12833;DHT22;6483;51.310;4.462;2024-03-23T07:35:13;7.20;99.90
12833;DHT22;6483;51.310;4.462;2024-03-23T07:37:38;7.40;99.90
12833;DHT22;6483;51.310;4.462;2024-03-23T07:40:07;7.60;99.90
12833;DHT22;6483;51.310;4.462;2024-03-23T07:45:03;7.70;99.90
12833;DHT22;6483;51.310;4.462;2024-03-23T07:47:32;7.70;99.90
12833;DHT22;6483;51.310;4.462;2024-03-23T07:52:27;7.80;99.90
12833;DHT22;6483;51.310;4.462;2024-03-23T07:57:19;8.20;99.90
12833;DHT22;6483;51.310;4.462;2024-03-23T07:59:45;8.30;99.90
12833;DHT22;6483;51.310;4.462;2024-03-23T08:02:10;8.40;99.90
12833;DHT22;6483;51.310;4.462;2024-03-23T08:04:39;7.90;99.90
12833;DHT22;6483;51.310;4.462;2024-03-23T08:07:06;7.40;99.90
12833;DHT22;6483;51.310;4.462;2024-03-23T08:09:32;6.90;99.90
12833;DHT22;6483;51.310;4.462;2024-03-23T08:12:01;6.60;99.90
12833;DHT22;6483;51.310;4.462;2024-03-23T08:14:27;6.50;99.90
12833;DHT22;6483;51.310;4.462;2024-03-23T08:16:54;6.50;99.90
12833;DHT22;6483;51.310;4.462;2024-03-23T08:19:20;6.40;99.90
12833;DHT22;6483;51.310;4.462;2024-03-23T08:29:08;7.00;99.90
12833;DHT22;6483;51.310;4.462;2024-03-23T08:33:59;7.50;99.90
12833;DHT22;6483;51.310;4.462;2024-03-23T08:36:25;7.70;99.90
12833;DHT22;6483;51.310;4.462;2024-03-23T08:38:52;7.80;99.90
12833;DHT22;6483;51.310;4.462;2024-03-23T08:41:19;7.90;99.90
12833;DHT22;6483;51.310;4.462;2024-03-23T08:46:12;8.60;99.90
12833;DHT22;6483;51.310;4.462;2024-03-23T08:48:40;9.10;99.90
12833;DHT22;6483;51.310;4.462;2024-03-23T08:51:13;9.30;99.90
12833;DHT22;6483;51.310;4.462;2024-03-23T08:53:40;9.60;99.90
12833;DHT22;6483;51.310;4.462;2024-03-23T08:56:10;9.80;99.90
12833;DHT22;6483;51.310;4.462;2024-03-23T08:58:37;9.70;99.90
12833;DHT22;6483;51.310;4.462;2024-03-23T09:01:11;9.40;99.90
12833;DHT22;6483;51.310;4.462;2024-03-23T09:03:40;9.20;99.90
12833;DHT22;6483;51.310;4.462;2024-03-23T09:06:11;9.00;99.90
12833;DHT22;6483;51.310;4.462;2024-03-23T09:08:43;8.60;99.90
12833;DHT22;6483;51.310;4.462;2024-03-23T09:11:12;7.10;99.90
12833;DHT22;6483;51.310;4.462;2024-03-23T09:13:41;6.50;99.90
12833;DHT22;6483;51.310;4.462;2024-03-23T09:16:07;6.10;99.90
12833;DHT22;6483;51.310;4.462;2024-03-23T09:18:35;6.00;99.90
12833;DHT22;6483;51.310;4.462;2024-03-23T09:21:02;5.90;99.90
12833;DHT22;6483;51.310;4.462;2024-03-23T09:23:29;5.90;99.90
12833;DHT22;6483;51.310;4.462;2024-03-23T09:25:58;6.20;99.90
12833;DHT22;6483;51.310;4.462;2024-03-23T09:28:28;6.80;99.90
12833;DHT22;6483;51.310;4.462;2024-03-23T09:33:21;8.30;99.90
12833;DHT22;6483;51.310;4.462;2024-03-23T09:38:16;8.70;99.90
12833;DHT22;6483;51.310;4.462;2024-03-23T09:40:43;9.00;99.90
12833;DHT22;6483;51.310;4.462;2024-03-23T09:43:09;9.20;99.90
12833;DHT22;6483;51.310;4.462;2024-03-23T09:45:43;9.60;99.90
12833;DHT22;6483;51.310;4.462;2024-03-23T09:48:09;10.30;99.90
12833;DHT22;6483;51.310;4.462;2024-03-23T09:53:08;10.80;99.90
12833;DHT22;6483;51.310;4.462;2024-03-23T09:55:34;10.80;99.90
12833;DHT22;6483;51.310;4.462;2024-03-23T09:58:04;11.20;99.90
12833;DHT22;6483;51.310;4.462;2024-03-23T10:00:31;11.50;99.90
12833;DHT22;6483;51.310;4.462;2024-03-23T10:03:01;11.20;99.90
12833;DHT22;6483;51.310;4.462;2024-03-23T10:05:29;11.30;99.90
12833;DHT22;6483;51.310;4.462;2024-03-23T10:10:31;11.00;99.90
12833;DHT22;6483;51.310;4.462;2024-03-23T10:12:56;10.90;99.90
12833;DHT22;6483;51.310;4.462;2024-03-23T10:15:24;10.60;99.90
12833;DHT22;6483;51.310;4.462;2024-03-23T10:17:55;11.50;99.90
12833;DHT22;6483;51.310;4.462;2024-03-23T10:20:22;12.30;99.90
12833;DHT22;6483;51.310;4.462;2024-03-23T10:25:22;9.90;99.90
12833;DHT22;6483;51.310;4.462;2024-03-23T10:28:01;8.90;99.90
12833;DHT22;6483;51.310;4.462;2024-03-23T10:38:06;7.60;99.90
12833;DHT22;6483;51.310;4.462;2024-03-23T10:50:32;8.80;99.90
12833;DHT22;6483;51.310;4.462;2024-03-23T10:58:41;7.90;99.90
12833;DHT22;6483;51.310;4.462;2024-03-23T11:01:16;7.70;99.90
12833;DHT22;6483;51.310;4.462;2024-03-23T11:03:51;7.30;99.90
12833;DHT22;6483;51.310;4.462;2024-03-23T11:06:49;7.00;99.90
12833;DHT22;6483;51.310;4.462;2024-03-23T11:09:40;6.70;99.90
12833;DHT22;6483;51.310;4.462;2024-03-23T11:15:04;6.70;99.90
12833;DHT22;6483;51.310;4.462;2024-03-23T11:17:30;6.80;99.90
12833;DHT22;6483;51.310;4.462;2024-03-23T11:20:29;7.20;99.90
12833;DHT22;6483;51.310;4.462;2024-03-23T11:22:59;7.70;99.90
12833;DHT22;6483;51.310;4.462;2024-03-23T11:25:26;8.90;99.90
12833;DHT22;6483;51.310;4.462;2024-03-23T11:27:54;9.80;99.90
12833;DHT22;6483;51.310;4.462;2024-03-23T11:30:27;9.40;99.90
12833;DHT22;6483;51.310;4.462;2024-03-23T11:32:57;8.40;99.90
12833;DHT22;6483;51.310;4.462;2024-03-23T11:35:37;7.80;99.90
12833;DHT22;6483;51.310;4.462;2024-03-23T11:38:13;7.40;99.90
12833;DHT22;6483;51.310;4.462;2024-03-23T11:40:46;7.40;99.90
12833;DHT22;6483;51.310;4.462;2024-03-23T11:43:17;7.70;99.90
12833;DHT22;6483;51.310;4.462;2024-03-23T11:48:10;7.80;99.90
12833;DHT22;6483;51.310;4.462;2024-03-23T11:50:43;8.00;99.90
12833;DHT22;6483;51.310;4.462;2024-03-23T11:53:23;8.50;99.90
12833;DHT22;6483;51.310;4.462;2024-03-23T11:55:56;8.40;99.90
12833;DHT22;6483;51.310;4.462;2024-03-23T11:58:24;8.10;99.90
12833;DHT22;6483;51.310;4.462;2024-03-23T12:00:59;7.40;99.90
12833;DHT22;6483;51.310;4.462;2024-03-23T12:03:44;7.00;99.90
12833;DHT22;6483;51.310;4.462;2024-03-23T12:06:11;7.20;99.90
12833;DHT22;6483;51.310;4.462;2024-03-23T12:11:16;6.90;99.90
12833;DHT22;6483;51.310;4.462;2024-03-23T12:13:43;6.70;99.90
12833;DHT22;6483;51.310;4.462;2024-03-23T12:16:19;6.70;99.90
12833;DHT22;6483;51.310;4.462;2024-03-23T12:18:47;6.60;99.90
12833;DHT22;6483;51.310;4.462;2024-03-23T12:23:43;6.50;99.90
12833;DHT22;6483;51.310;4.462;2024-03-23T12:28:43;6.70;99.90
12833;DHT22;6483;51.310;4.462;2024-03-23T12:31:15;7.10;99.90
12833;DHT22;6483;51.310;4.462;2024-03-23T12:36:08;9.30;99.90
12833;DHT22;6483;51.310;4.462;2024-03-23T12:41:03;9.70;99.90
12833;DHT22;6483;51.310;4.462;2024-03-23T12:48:31;9.20;99.90
12833;DHT22;6483;51.310;4.462;2024-03-23T12:55:49;9.60;99.90
12833;DHT22;6483;51.310;4.462;2024-03-23T12:58:18;11.00;99.90
12833;DHT22;6483;51.310;4.462;2024-03-23T13:00:45;10.80;99.90
12833;DHT22;6483;51.310;4.462;2024-03-23T13:03:13;10.40;99.90
12833;DHT22;6483;51.310;4.462;2024-03-23T13:05:41;9.80;99.90
12833;DHT22;6483;51.310;4.462;2024-03-23T13:08:10;9.70;99.90
12833;DHT22;6483;51.310;4.462;2024-03-23T13:30:05;8.80;99.90
12833;DHT22;6483;51.310;4.462;2024-03-23T13:34:57;8.30;99.90
12833;DHT22;6483;51.310;4.462;2024-03-23T13:37:23;8.30;99.90
12833;DHT22;6483;51.310;4.462;2024-03-23T13:39:52;8.20;99.90
12833;DHT22;6483;51.310;4.462;2024-03-23T13:47:31;8.60;99.90
12833;DHT22;6483;51.310;4.462;2024-03-23T13:52:29;9.90;99.90
12833;DHT22;6483;51.310;4.462;2024-03-23T13:57:22;12.60;99.90
12833;DHT22;6483;51.310;4.462;2024-03-23T13:59:51;13.00;99.90
12833;DHT22;6483;51.310;4.462;2024-03-23T14:04:43;12.30;99.90
12833;DHT22;6483;51.310;4.462;2024-03-23T14:07:12;13.30;99.90
12833;DHT22;6483;51.310;4.462;2024-03-23T14:09:56;13.70;99.90
12833;DHT22;6483;51.310;4.462;2024-03-23T14:12:24;13.90;99.90
12833;DHT22;6483;51.310;4.462;2024-03-23T14:17:20;15.10;99.90
12833;DHT22;6483;51.310;4.462;2024-03-23T14:19:46;14.80;99.90
12833;DHT22;6483;51.310;4.462;2024-03-23T14:22:12;14.10;99.90
12833;DHT22;6483;51.310;4.462;2024-03-23T14:24:37;13.70;99.90
12833;DHT22;6483;51.310;4.462;2024-03-23T14:27:04;14.30;99.90
12833;DHT22;6483;51.310;4.462;2024-03-23T14:32:00;14.80;99.90
12833;DHT22;6483;51.310;4.462;2024-03-23T14:34:26;13.70;99.90
12833;DHT22;6483;51.310;4.462;2024-03-23T14:36:54;12.80;99.90
12833;DHT22;6483;51.310;4.462;2024-03-23T14:39:26;11.90;99.90
12833;DHT22;6483;51.310;4.462;2024-03-23T14:41:52;11.90;99.90
12833;DHT22;6483;51.310;4.462;2024-03-23T14:44:21;11.40;99.90
12833;DHT22;6483;51.310;4.462;2024-03-23T14:46:50;10.90;99.90
12833;DHT22;6483;51.310;4.462;2024-03-23T14:49:16;10.30;99.90
12833;DHT22;6483;51.310;4.462;2024-03-23T14:56:40;7.50;99.90
12833;DHT22;6483;51.310;4.462;2024-03-23T14:59:06;7.20;99.90
12833;DHT22;6483;51.310;4.462;2024-03-23T15:08:51;9.50;99.90
12833;DHT22;6483;51.310;4.462;2024-03-23T15:16:17;11.40;99.90
12833;DHT22;6483;51.310;4.462;2024-03-23T15:18:46;11.40;99.90
12833;DHT22;6483;51.310;4.462;2024-03-23T15:23:39;11.50;99.90
12833;DHT22;6483;51.310;4.462;2024-03-23T15:26:07;11.80;99.90
12833;DHT22;6483;51.310;4.462;2024-03-23T15:31:17;12.50;99.90
12833;DHT22;6483;51.310;4.462;2024-03-23T15:33:44;13.10;99.90
12833;DHT22;6483;51.310;4.462;2024-03-23T15:36:09;12.50;99.90
12833;DHT22;6483;51.310;4.462;2024-03-23T15:38:35;11.60;99.90
12833;DHT22;6483;51.310;4.462;2024-03-23T15:41:01;11.60;99.90
12833;DHT22;6483;51.310;4.462;2024-03-23T15:43:27;11.80;99.90
12833;DHT22;6483;51.310;4.462;2024-03-23T15:45:57;12.00;99.90
12833;DHT22;6483;51.310;4.462;2024-03-23T15:48:24;12.30;99.90
12833;DHT22;6483;51.310;4.462;2024-03-23T15:50:53;12.00;99.90
12833;DHT22;6483;51.310;4.462;2024-03-23T15:53:20;12.10;99.90
12833;DHT22;6483;51.310;4.462;2024-03-23T15:55:52;12.10;99.90
12833;DHT22;6483;51.310;4.462;2024-03-23T16:03:12;12.20;99.90
12833;DHT22;6483;51.310;4.462;2024-03-23T16:05:37;12.10;99.90
12833;DHT22;6483;51.310;4.462;2024-03-23T16:08:03;12.10;99.90
12833;DHT22;6483;51.310;4.462;2024-03-23T16:10:30;11.90;99.90
12833;DHT22;6483;51.310;4.462;2024-03-23T16:12:56;11.80;99.90
12833;DHT22;6483;51.310;4.462;2024-03-23T16:15:22;11.80;99.90
12833;DHT22;6483;51.310;4.462;2024-03-23T16:22:40;12.00;99.90
12833;DHT22;6483;51.310;4.462;2024-03-23T16:25:06;12.00;99.90
12833;DHT22;6483;51.310;4.462;2024-03-23T16:27:32;12.50;99.90
12833;DHT22;6483;51.310;4.462;2024-03-23T16:32:24;13.00;99.90
12833;DHT22;6483;51.310;4.462;2024-03-23T16:34:50;12.70;99.90
12833;DHT22;6483;51.310;4.462;2024-03-23T16:37:16;12.20;99.90
12833;DHT22;6483;51.310;4.462;2024-03-23T16:42:09;11.40;99.90
12833;DHT22;6483;51.310;4.462;2024-03-23T16:44:36;11.40;99.90
12833;DHT22;6483;51.310;4.462;2024-03-23T16:47:02;11.30;99.90
12833;DHT22;6483;51.310;4.462;2024-03-23T16:51:55;11.40;99.90
12833;DHT22;6483;51.310;4.462;2024-03-23T16:56:47;10.90;99.90
12833;DHT22;6483;51.310;4.462;2024-03-23T17:01:40;9.80;99.90
12833;DHT22;6483;51.310;4.462;2024-03-23T17:04:05;9.60;99.90
12833;DHT22;6483;51.310;4.462;2024-03-23T17:11:24;9.10;99.90
12833;DHT22;6483;51.310;4.462;2024-03-23T17:21:15;8.80;99.90
12833;DHT22;6483;51.310;4.462;2024-03-23T17:23:40;8.70;99.90
12833;DHT22;6483;51.310;4.462;2024-03-23T17:28:32;8.60;99.90
12833;DHT22;6483;51.310;4.462;2024-03-23T17:38:16;8.50;99.90
12833;DHT22;6483;51.310;4.462;2024-03-23T17:40:42;8.60;99.90
12833;DHT22;6483;51.310;4.462;2024-03-23T17:45:34;8.50;99.90
12833;DHT22;6483;51.310;4.462;2024-03-23T17:48:00;8.40;99.90
12833;DHT22;6483;51.310;4.462;2024-03-23T17:52:52;8.10;99.90
12833;DHT22;6483;51.310;4.462;2024-03-23T18:00:10;7.60;99.90
12833;DHT22;6483;51.310;4.462;2024-03-23T18:05:04;7.20;99.90
12833;DHT22;6483;51.310;4.462;2024-03-23T18:12:23;6.80;99.90
12833;DHT22;6483;51.310;4.462;2024-03-23T18:14:52;6.80;99.90
12833;DHT22;6483;51.310;4.462;2024-03-23T18:19:45;6.60;99.90
12833;DHT22;6483;51.310;4.462;2024-03-23T18:27:03;6.50;99.90
12833;DHT22;6483;51.310;4.462;2024-03-23T18:29:29;6.40;99.90
12833;DHT22;6483;51.310;4.462;2024-03-23T18:31:55;6.30;99.90
12833;DHT22;6483;51.310;4.462;2024-03-23T18:36:47;6.20;99.90
12833;DHT22;6483;51.310;4.462;2024-03-23T18:39:13;6.10;99.90
12833;DHT22;6483;51.310;4.462;2024-03-23T18:41:39;6.10;99.90
12833;DHT22;6483;51.310;4.462;2024-03-23T18:46:31;5.80;99.90
12833;DHT22;6483;51.310;4.462;2024-03-23T18:48:56;5.70;99.90
12833;DHT22;6483;51.310;4.462;2024-03-23T18:51:22;5.70;99.90
12833;DHT22;6483;51.310;4.462;2024-03-23T18:53:49;5.80;99.90
12833;DHT22;6483;51.310;4.462;2024-03-23T19:01:07;5.60;99.90
12833;DHT22;6483;51.310;4.462;2024-03-23T19:03:34;5.40;99.90
12833;DHT22;6483;51.310;4.462;2024-03-23T19:06:01;5.20;99.90
12833;DHT22;6483;51.310;4.462;2024-03-23T19:10:58;5.10;99.90
12833;DHT22;6483;51.310;4.462;2024-03-23T19:13:25;5.10;99.90
12833;DHT22;6483;51.310;4.462;2024-03-23T19:15:51;5.10;99.90
12833;DHT22;6483;51.310;4.462;2024-03-23T19:18:17;4.90;99.90
12833;DHT22;6483;51.310;4.462;2024-03-23T19:20:57;4.80;99.90
12833;DHT22;6483;51.310;4.462;2024-03-23T19:25:54;4.60;99.90
12833;DHT22;6483;51.310;4.462;2024-03-23T19:28:21;4.60;99.90
12833;DHT22;6483;51.310;4.462;2024-03-23T19:30:51;4.70;99.90
12833;DHT22;6483;51.310;4.462;2024-03-23T19:33:17;4.60;99.90
12833;DHT22;6483;51.310;4.462;2024-03-23T19:35:43;4.70;99.90
12833;DHT22;6483;51.310;4.462;2024-03-23T19:38:22;4.80;99.90
12833;DHT22;6483;51.310;4.462;2024-03-23T19:40:55;4.70;99.90
12833;DHT22;6483;51.310;4.462;2024-03-23T19:45:47;4.80;99.90
12833;DHT22;6483;51.310;4.462;2024-03-23T19:50:53;4.90;99.90
12833;DHT22;6483;51.310;4.462;2024-03-23T19:55:59;5.00;99.90
12833;DHT22;6483;51.310;4.462;2024-03-23T19:58:34;5.00;99.90
12833;DHT22;6483;51.310;4.462;2024-03-23T20:01:19;5.00;99.90
12833;DHT22;6483;51.310;4.462;2024-03-23T20:03:51;5.10;99.90
12833;DHT22;6483;51.310;4.462;2024-03-23T20:06:17;5.20;99.90
12833;DHT22;6483;51.310;4.462;2024-03-23T20:08:50;5.30;99.90
12833;DHT22;6483;51.310;4.462;2024-03-23T20:11:16;5.30;99.90
12833;DHT22;6483;51.310;4.462;2024-03-23T20:23:35;5.40;99.90
12833;DHT22;6483;51.310;4.462;2024-03-23T20:31:00;5.40;99.90
12833;DHT22;6483;51.310;4.462;2024-03-23T20:33:27;5.40;99.90
12833;DHT22;6483;51.310;4.462;2024-03-23T20:35:54;5.30;99.90
12833;DHT22;6483;51.310;4.462;2024-03-23T20:38:21;5.30;99.90
12833;DHT22;6483;51.310;4.462;2024-03-23T20:40:51;5.30;99.90
12833;DHT22;6483;51.310;4.462;2024-03-23T20:43:21;5.40;99.90
12833;DHT22;6483;51.310;4.462;2024-03-23T20:46:01;5.50;99.90
12833;DHT22;6483;51.310;4.462;2024-03-23T20:48:29;5.50;99.90
12833;DHT22;6483;51.310;4.462;2024-03-23T20:51:03;5.60;99.90
12833;DHT22;6483;51.310;4.462;2024-03-23T20:55:58;5.70;99.90
12833;DHT22;6483;51.310;4.462;2024-03-23T20:58:25;5.80;99.90
12833;DHT22;6483;51.310;4.462;2024-03-23T21:10:47;6.00;99.90
12833;DHT22;6483;51.310;4.462;2024-03-23T21:25:36;6.20;99.90
12833;DHT22;6483;51.310;4.462;2024-03-23T21:35:42;6.10;99.90
12833;DHT22;6483;51.310;4.462;2024-03-23T21:38:14;6.00;99.90
12833;DHT22;6483;51.310;4.462;2024-03-23T21:40:40;5.90;99.90
12833;DHT22;6483;51.310;4.462;2024-03-23T21:45:35;5.80;99.90
12833;DHT22;6483;51.310;4.462;2024-03-23T21:48:02;5.80;99.90
12833;DHT22;6483;51.310;4.462;2024-03-23T21:52:54;5.60;99.90
12833;DHT22;6483;51.310;4.462;2024-03-23T21:57:47;5.60;99.90
12833;DHT22;6483;51.310;4.462;2024-03-23T22:00:13;5.50;99.90
12833;DHT22;6483;51.310;4.462;2024-03-23T22:02:39;5.50;99.90
12833;DHT22;6483;51.310;4.462;2024-03-23T22:22:12;5.90;99.90
12833;DHT22;6483;51.310;4.462;2024-03-23T22:29:33;6.00;99.90
12833;DHT22;6483;51.310;4.462;2024-03-23T22:34:34;5.90;99.90
12833;DHT22;6483;51.310;4.462;2024-03-23T22:39:36;5.80;99.90
12833;DHT22;6483;51.310;4.462;2024-03-23T22:42:02;5.80;99.90
12833;DHT22;6483;51.310;4.462;2024-03-23T22:44:29;5.70;99.90
12833;DHT22;6483;51.310;4.462;2024-03-23T22:51:53;5.60;99.90
12833;DHT22;6483;51.310;4.462;2024-03-23T23:01:46;5.60;99.90
12833;DHT22;6483;51.310;4.462;2024-03-23T23:04:13;5.60;99.90
12833;DHT22;6483;51.310;4.462;2024-03-23T23:06:39;5.60;99.90
12833;DHT22;6483;51.310;4.462;2024-03-23T23:09:05;5.60;99.90
12833;DHT22;6483;51.310;4.462;2024-03-23T23:11:35;5.60;99.90
12833;DHT22;6483;51.310;4.462;2024-03-23T23:16:27;5.60;99.90
12833;DHT22;6483;51.310;4.462;2024-03-23T23:18:54;5.50;99.90
12833;DHT22;6483;51.310;4.462;2024-03-23T23:21:23;5.60;99.90
12833;DHT22;6483;51.310;4.462;2024-03-23T23:33:36;5.70;99.90
12833;DHT22;6483;51.310;4.462;2024-03-23T23:38:32;5.80;99.90
12833;DHT22;6483;51.310;4.462;2024-03-23T23:43:27;5.90;99.90